Time;durP1;ratioP1;P1;durP2;ratioP2;P2;SDS_P1;SDS_P2;PMS_P1;PMS_P2;Temp;Humidity;BMP_temperature;BMP_pressure;BME280_temperature;BME280_humidity;BME280_pressure;Samples;Min_cycle;Max_cycle;Signal;HPM_P1;HPM_P2
2021/09/14 00:02:02;;;;;;;;;;;;;;;16.28;74.37;98409.31;1591742;89;24500;-87
2021/09/14 00:04:28;;;;;;;;;;;;;;;16.28;74.37;98404.86;1590814;89;20477;-86
2021/09/14 00:06:54;;;;;;;;;;;;;;;16.32;74.39;98402.27;1589408;88;20363;-87
2021/09/14 00:09:20;;;;;;;;;;;;;;;16.30;74.41;98404.73;1586367;89;20808;-87
2021/09/14 00:11:46;;;;;;;;;;;;;;;16.14;74.38;98405.81;1589150;89;26011;-87
2021/09/14 00:14:12;;;;;;;;;;;;;;;16.08;74.36;98403.26;1593513;88;20293;-87
2021/09/14 00:16:38;;;;;;;;;;;;;;;16.17;74.40;98401.07;1591616;89;20888;-87
2021/09/14 00:19:04;;;;;;;;;;;;;;;16.21;74.43;98401.13;1593078;89;20263;-87
2021/09/14 00:21:30;;;;;;;;;;;;;;;16.12;74.41;98398.52;1594535;88;22128;-87
2021/09/14 00:23:56;;;;;;;;;;;;;;;16.11;74.40;98399.48;1589557;89;21173;-86
2021/09/14 00:26:25;;;;;;;;;;;;;;;16.16;74.42;98398.56;1592266;89;24495;-87
2021/09/14 00:28:51;;;;;;;;;;;;;;;16.22;74.44;98399.31;1593302;89;20321;-87
2021/09/14 00:31:17;;;;;;;;;;;;;;;16.23;74.47;98392.58;1589253;88;24802;-87
2021/09/14 00:33:43;;;;;;;;;;;;;;;16.20;74.46;98394.17;1590758;88;20276;-87
2021/09/14 00:36:09;;;;;;;;;;;;;;;16.14;74.45;98395.25;1589277;89;26003;-87
2021/09/14 00:38:46;;;;;;;;;;;;;;;16.13;74.44;98399.70;1592609;89;20785;-87
2021/09/14 00:41:12;;;;;;;;;;;;;;;16.10;74.47;98396.49;1576219;89;20523;-87
2021/09/14 00:43:46;;;;;;;;;;;;;;;16.11;74.49;98399.48;1579833;89;25492;-87
2021/09/14 00:46:17;;;;;;;;;;;;;;;16.10;74.51;98392.05;1569369;89;22136;-88
2021/09/14 00:48:43;;;;;;;;;;;;;;;16.11;74.52;98399.00;1596564;88;26091;-87
2021/09/14 00:51:11;;;;;;;;;;;;;;;16.12;74.56;98398.52;1597905;88;20316;-88
2021/09/14 00:53:37;;;;;;;;;;;;;;;15.98;74.55;98398.97;1575252;90;20228;-87
2021/09/14 00:56:03;;;;;;;;;;;;;;;15.81;74.49;98397.88;1595498;88;20767;-87
2021/09/14 00:58:30;;;;;;;;;;;;;;;15.66;74.45;98391.34;1572338;90;22021;-87
2021/09/14 01:01:01;;;;;;;;;;;;;;;15.62;74.48;98396.56;1600181;89;26017;-87
2021/09/14 01:03:27;;;;;;;;;;;;;;;15.63;74.55;98392.47;1572013;89;24474;-87
2021/09/14 01:06:01;;;;;;;;;;;;;;;15.71;74.63;98395.75;1596935;88;20398;-88
2021/09/14 01:08:37;;;;;;;;;;;;;;;15.80;74.72;98398.85;1564111;91;25630;-87
2021/09/14 01:11:04;;;;;;;;;;;;;;;15.84;74.78;98397.59;1599734;89;22056;-88
2021/09/14 01:13:30;;;;;;;;;;;;;;;15.76;74.84;98396.99;1571190;90;26028;-87
2021/09/14 01:15:58;;;;;;;;;;;;;;;15.64;74.84;98399.42;1597033;89;24299;-87
2021/09/14 01:18:24;;;;;;;;;;;;;;;15.53;74.86;98393.45;1572442;91;20350;-87
2021/09/14 01:20:50;;;;;;;;;;;;;;;15.45;74.89;98398.89;1596288;88;20795;-87
2021/09/14 01:23:16;;;;;;;;;;;;;;;15.39;74.93;98395.97;1568246;90;20290;-87
2021/09/14 01:25:42;;;;;;;;;;;;;;;15.33;74.98;98397.83;1593097;89;26139;-87
2021/09/14 01:28:08;;;;;;;;;;;;;;;15.30;75.03;98406.87;1573289;91;20876;-87
2021/09/14 01:30:34;;;;;;;;;;;;;;;15.28;75.05;98401.37;1597751;89;20467;-87
2021/09/14 01:33:00;;;;;;;;;;;;;;;15.29;75.10;98407.00;1575820;89;24807;-87
2021/09/14 01:35:27;;;;;;;;;;;;;;;15.21;75.11;98405.06;1601718;88;20270;-87
2021/09/14 01:37:53;;;;;;;;;;;;;;;15.19;75.15;98406.99;1575405;90;26112;-87
2021/09/14 01:40:20;;;;;;;;;;;;;;;15.32;75.23;98408.06;1601689;89;24642;-86
2021/09/14 01:42:47;;;;;;;;;;;;;;;15.28;75.26;98406.64;1575480;91;20241;-87
2021/09/14 01:45:13;;;;;;;;;;;;;;;15.15;75.23;98410.88;1601726;88;24770;-86
2021/09/14 01:47:41;;;;;;;;;;;;;;;15.03;75.20;98409.32;1574497;90;22214;-87
2021/09/14 01:50:15;;;;;;;;;;;;;;;15.02;75.23;98411.60;1601862;89;26012;-87
2021/09/14 01:52:41;;;;;;;;;;;;;;;14.98;75.28;98407.58;1576445;90;24511;-87
2021/09/14 01:55:17;;;;;;;;;;;;;;;14.92;75.31;98412.91;1601269;88;20523;-87
2021/09/14 01:57:43;;;;;;;;;;;;;;;15.01;75.37;98410.77;1575459;89;24799;-87
2021/09/14 02:00:13;;;;;;;;;;;;;;;15.11;75.45;98412.61;1602856;88;22101;-88
2021/09/14 02:03:06;;;;;;;;;;;;;;;15.04;75.49;98412.31;1575134;90;26047;-88
2021/09/14 03:00:09;;;;;;;;;;;;;;;14.64;76.39;98412.32;1567196;91;24639;-87
2021/09/14 03:02:35;;;;;;;;;;;;;;;14.68;76.48;98407.13;1595245;88;20537;-87
2021/09/14 03:05:13;;;;;;;;;;;;;;;14.67;76.55;98404.17;1563427;90;24851;-86
2021/09/14 03:07:39;;;;;;;;;;;;;;;14.63;76.59;98400.95;1592358;89;22221;-86
2021/09/14 03:10:05;;;;;;;;;;;;;;;14.68;76.66;98390.01;1593167;89;21119;-86
2021/09/14 03:12:41;;;;;;;;;;;;;;;14.73;76.70;98393.59;1595061;89;24500;-86
2021/09/14 03:15:07;;;;;;;;;;;;;;;14.75;76.70;98381.93;1568382;90;20236;-87
2021/09/14 03:17:33;;;;;;;;;;;;;;;14.74;76.75;98387.32;1591169;88;24819;-86
2021/09/14 03:19:59;;;;;;;;;;;;;;;14.79;76.80;98392.53;1568906;90;20270;-86
2021/09/14 03:22:39;;;;;;;;;;;;;;;14.83;76.82;98395.76;1595833;88;26051;-86
2021/09/14 03:25:11;;;;;;;;;;;;;;;14.84;76.87;98399.55;1564836;90;24535;-87
2021/09/14 03:27:38;;;;;;;;;;;;;;;14.79;76.86;98395.66;1578010;89;33807;-87
2021/09/14 03:30:06;;;;;;;;;;;;;;;14.77;76.89;98391.86;1566575;90;25032;-87
2021/09/14 03:32:34;;;;;;;;;;;;;;;14.82;76.92;98394.09;1578067;88;22095;-87
2021/09/14 03:35:07;;;;;;;;;;;;;;;14.82;76.89;98389.66;1564894;91;26043;-87
2021/09/14 03:37:33;;;;;;;;;;;;;;;14.83;76.90;98394.44;1588580;90;24556;-87
2021/09/14 03:39:58;;;;;;;;;;;;;;;14.80;76.92;98398.64;1592632;89;20333;-87
2021/09/14 03:42:24;;;;;;;;;;;;;;;14.79;76.95;98404.39;1591473;89;20278;-87
2021/09/14 03:44:56;;;;;;;;;;;;;;;14.82;76.99;98407.26;1588546;88;22039;-87
2021/09/14 03:47:26;;;;;;;;;;;;;;;14.74;77.02;98406.59;1593061;88;26646;-87
2021/09/14 03:49:52;;;;;;;;;;;;;;;14.64;77.02;98411.84;1590152;89;24475;-87
2021/09/14 03:52:18;;;;;;;;;;;;;;;14.60;77.05;98406.98;1594378;88;20334;-88
2021/09/14 03:54:58;;;;;;;;;;;;;;;14.53;77.05;98406.67;1616498;87;20214;-87
2021/09/14 03:57:32;;;;;;;;;;;;;;;14.41;77.05;98409.03;1587686;89;22011;-87
2021/09/14 03:59:58;;;;;;;;;;;;;;;14.34;77.06;98405.25;1589924;88;26072;-87
2021/09/14 04:02:36;;;;;;;;;;;;;;;14.36;77.10;98413.83;1585302;89;24513;-87
2021/09/14 04:10:05;;;;;;;;;;;;;;;14.47;77.26;98415.09;1570855;90;21947;-87
2021/09/14 04:12:31;;;;;;;;;;;;;;;14.50;77.31;98421.91;1587383;89;26078;-87
2021/09/14 04:15:03;;;;;;;;;;;;;;;14.51;77.35;98424.39;1590692;88;20334;-87
2021/09/14 04:17:29;;;;;;;;;;;;;;;14.52;77.38;98434.44;1590156;88;20547;-87
2021/09/14 04:19:55;;;;;;;;;;;;;;;14.56;77.42;98426.66;1592066;88;20373;-87
2021/09/14 04:22:21;;;;;;;;;;;;;;;14.59;77.46;98423.27;1590716;89;21990;-87
2021/09/14 04:24:49;;;;;;;;;;;;;;;14.63;77.49;98425.14;1564642;91;21080;-87
2021/09/14 04:27:15;;;;;;;;;;;;;;;14.60;77.56;98427.56;1540734;92;24740;-87
2021/09/14 04:29:45;;;;;;;;;;;;;;;14.58;77.60;98428.17;1526863;92;20301;-86
2021/09/14 04:32:11;;;;;;;;;;;;;;;14.57;77.64;98430.45;1545134;90;24767;-86
2021/09/14 04:34:37;;;;;;;;;;;;;;;14.58;77.70;98429.48;1564525;91;20789;-86
2021/09/14 04:37:03;;;;;;;;;;;;;;;14.59;77.75;98428.53;1586539;89;21108;-86
2021/09/14 04:39:32;;;;;;;;;;;;;;;14.58;77.79;98429.97;1577371;89;24498;-86
2021/09/14 04:41:59;;;;;;;;;;;;;;;14.62;77.86;98426.09;1581310;89;20220;-86
2021/09/14 04:44:26;;;;;;;;;;;;;;;14.59;77.90;98438.23;1585387;89;24947;-86
2021/09/14 04:46:52;;;;;;;;;;;;;;;14.59;77.93;98435.11;1582300;89;22049;-86
2021/09/14 04:49:30;;;;;;;;;;;;;;;14.58;77.96;98436.08;1588776;89;26807;-86
2021/09/14 04:51:55;;;;;;;;;;;;;;;14.64;78.01;98434.71;1583990;89;24553;-86
2021/09/14 04:54:23;;;;;;;;;;;;;;;14.72;78.07;98439.33;1589413;89;20233;-86
2021/09/14 04:56:49;;;;;;;;;;;;;;;14.73;78.11;98437.86;1583490;89;24929;-86
2021/09/14 04:59:15;;;;;;;;;;;;;;;14.73;78.12;98433.09;1577853;89;20362;-86
2021/09/14 05:01:43;;;;;;;;;;;;;;;14.82;78.16;98430.97;1582475;89;21038;-86
2021/09/14 05:04:10;;;;;;;;;;;;;;;14.89;78.18;98431.59;1587759;89;24575;-87
2021/09/14 05:06:36;;;;;;;;;;;;;;;14.92;78.17;98435.78;1587941;89;20563;-87
2021/09/14 05:09:03;;;;;;;;;;;;;;;14.90;78.17;98444.30;1582088;89;24903;-87
2021/09/14 05:11:32;;;;;;;;;;;;;;;14.80;78.17;98442.95;1584578;89;21937;-87
2021/09/14 05:13:58;;;;;;;;;;;;;;;14.77;78.16;98439.77;1582810;89;26196;-87
2021/09/14 05:16:24;;;;;;;;;;;;;;;14.85;78.17;98445.18;1589458;89;20863;-87
2021/09/14 05:18:50;;;;;;;;;;;;;;;14.89;78.19;98443.97;1583074;89;20484;-87
2021/09/14 05:21:16;;;;;;;;;;;;;;;14.84;78.18;98439.56;1587065;89;20309;-86
2021/09/14 05:23:48;;;;;;;;;;;;;;;14.89;78.20;98443.46;1587530;89;22085;-87
2021/09/14 05:26:14;;;;;;;;;;;;;;;14.96;78.26;98444.60;1584450;89;26065;-87
2021/09/14 05:28:43;;;;;;;;;;;;;;;15.03;78.29;98434.36;1585909;89;24398;-87
2021/09/14 05:31:08;;;;;;;;;;;;;;;15.08;78.34;98438.26;1596358;88;20265;-87
2021/09/14 05:33:35;;;;;;;;;;;;;;;15.19;78.36;98440.42;1574207;90;24723;-87
2021/09/14 05:36:06;;;;;;;;;;;;;;;15.24;78.34;98444.32;1605853;89;21838;-86
2021/09/14 05:38:34;;;;;;;;;;;;;;;15.28;78.35;98441.75;1579364;91;26084;-87
2021/09/14 05:41:00;;;;;;;;;;;;;;;15.22;78.38;98446.25;1604911;88;24527;-86
2021/09/14 05:43:32;;;;;;;;;;;;;;;15.19;78.39;98439.95;1578781;90;20182;-86
2021/09/14 05:45:59;;;;;;;;;;;;;;;15.29;78.42;98438.64;1605774;89;24890;-87
2021/09/14 05:48:24;;;;;;;;;;;;;;;15.43;78.52;98442.22;1579404;91;22035;-86
2021/09/14 05:50:50;;;;;;;;;;;;;;;15.52;78.57;98438.77;1578536;89;21095;-86
2021/09/14 05:53:18;;;;;;;;;;;;;;;15.58;78.62;98432.11;1590861;89;20387;-86
2021/09/14 05:55:44;;;;;;;;;;;;;;;15.64;78.69;98435.04;1585159;89;20478;-86
2021/09/14 05:58:12;;;;;;;;;;;;;;;15.70;78.76;98430.53;1578114;89;20759;-86
2021/09/14 06:00:38;;;;;;;;;;;;;;;15.71;78.78;98437.96;1558881;89;21776;-87
2021/09/14 06:03:04;;;;;;;;;;;;;;;15.72;78.84;98439.12;1598228;88;21558;-86
2021/09/14 06:05:30;;;;;;;;;;;;;;;15.75;78.89;98438.02;1604540;89;24580;-85
2021/09/14 06:07:57;;;;;;;;;;;;;;;15.79;78.95;98438.91;1579181;90;20284;-85
2021/09/14 06:10:23;;;;;;;;;;;;;;;15.82;79.00;98437.78;1605766;88;24742;-85
2021/09/14 06:12:56;;;;;;;;;;;;;;;15.87;79.06;98440.36;1579193;90;20922;-86
2021/09/14 06:15:24;;;;;;;;;;;;;;;15.94;79.14;98447.23;1605764;89;26090;-86
2021/09/14 06:17:51;;;;;;;;;;;;;;;15.97;79.19;98444.81;1579053;91;24455;-86
2021/09/14 06:20:17;;;;;;;;;;;;;;;16.02;79.28;98450.02;1608392;88;20299;-86
2021/09/14 06:22:43;;;;;;;;;;;;;;;16.04;79.33;98446.73;1579108;89;20256;-87
2021/09/14 06:25:15;;;;;;;;;;;;;;;16.08;79.41;98448.63;1596205;88;20829;-86
2021/09/14 06:27:49;;;;;;;;;;;;;;;16.11;79.47;98450.97;1603988;88;26186;-86
2021/09/14 06:30:24;;;;;;;;;;;;;;;16.10;79.51;98455.41;1606617;89;24458;-87
2021/09/14 06:32:50;;;;;;;;;;;;;;;16.14;79.60;98450.70;1579039;90;20293;-86
2021/09/14 06:35:17;;;;;;;;;;;;;;;16.20;79.63;98451.45;1601175;88;20240;-86
2021/09/14 06:37:43;;;;;;;;;;;;;;;16.26;79.70;98453.02;1590850;89;21906;-86
2021/09/14 06:40:10;;;;;;;;;;;;;;;16.33;79.76;98446.69;1601485;89;21047;-86
2021/09/14 06:42:36;;;;;;;;;;;;;;;16.34;79.83;98451.00;1575393;90;24429;-86
2021/09/14 06:45:04;;;;;;;;;;;;;;;16.43;79.87;98454.09;1601894;88;20577;-86
2021/09/14 06:47:30;;;;;;;;;;;;;;;16.52;79.94;98447.13;1600184;88;24828;-86
2021/09/14 06:49:56;;;;;;;;;;;;;;;16.59;79.99;98448.23;1575267;90;20276;-86
2021/09/14 06:52:21;;;;;;;;;;;;;;;16.65;80.05;98442.38;1603102;88;21071;-86
2021/09/14 06:54:47;;;;;;;;;;;;;;;16.72;80.09;98441.66;1573732;90;24510;-87
2021/09/14 06:57:13;;;;;;;;;;;;;;;16.80;80.13;98438.27;1601991;88;20390;-87
2021/09/14 06:59:39;;;;;;;;;;;;;;;16.89;80.19;98444.51;1575398;91;20798;-88
2021/09/14 07:02:05;;;;;;;;;;;;;;;16.96;80.21;98442.95;1600840;89;20713;-87
2021/09/14 07:04:31;;;;;;;;;;;;;;;17.05;80.24;98442.89;1561523;90;20791;-88
2021/09/14 07:06:57;;;;;;;;;;;;;;;17.13;80.23;98439.00;1602077;88;20460;-87
2021/09/14 07:09:26;;;;;;;;;;;;;;;17.25;80.24;98442.77;1574550;90;20557;-86
2021/09/14 07:11:52;;;;;;;;;;;;;;;17.32;80.25;98446.49;1575465;90;24826;-86
2021/09/14 07:14:18;;;;;;;;;;;;;;;17.41;80.20;98442.94;1601616;89;21939;-86
2021/09/14 07:16:44;;;;;;;;;;;;;;;17.51;80.17;98446.37;1575535;90;25991;-86
2021/09/14 07:19:10;;;;;;;;;;;;;;;17.58;80.12;98442.95;1601468;88;24547;-86
2021/09/14 07:21:36;;;;;;;;;;;;;;;17.65;80.07;98443.23;1574628;90;20332;-86
2021/09/14 07:24:02;;;;;;;;;;;;;;;17.72;80.00;98452.23;1601956;89;24746;-86
2021/09/14 07:26:28;;;;;;;;;;;;;;;17.73;79.95;98448.58;1574570;90;20961;-86
2021/09/14 07:28:55;;;;;;;;;;;;;;;17.78;79.89;98446.83;1601760;88;26035;-86
2021/09/14 07:31:21;;;;;;;;;;;;;;;17.81;79.84;98449.16;1575243;90;24493;-85
2021/09/14 07:33:47;;;;;;;;;;;;;;;17.74;79.76;98452.89;1598584;88;20275;-85
2021/09/14 07:36:13;;;;;;;;;;;;;;;17.77;79.68;98451.77;1595920;88;20264;-86
2021/09/14 07:38:40;;;;;;;;;;;;;;;17.78;79.66;98450.27;1563817;90;20861;-86
2021/09/14 07:41:08;;;;;;;;;;;;;;;17.74;79.61;98452.89;1586722;89;26820;-85
2021/09/14 07:43:34;;;;;;;;;;;;;;;17.77;79.56;98448.64;1588819;89;24470;-85
2021/09/14 07:46:00;;;;;;;;;;;;;;;17.78;79.50;98455.57;1583573;89;20287;-86
2021/09/14 07:48:29;;;;;;;;;;;;;;;17.82;79.48;98455.63;1593557;89;24895;-86
2021/09/14 07:50:55;;;;;;;;;;;;;;;17.77;79.45;98452.61;1586060;89;20867;-86
2021/09/14 07:53:22;;;;;;;;;;;;;;;17.80;79.43;98453.61;1583307;89;21851;-86
2021/09/14 07:55:48;;;;;;;;;;;;;;;17.86;79.42;98451.69;1589489;89;24563;-86
2021/09/14 07:58:13;;;;;;;;;;;;;;;17.90;79.38;98458.33;1591530;89;20321;-86
2021/09/14 08:00:39;;;;;;;;;;;;;;;18.04;79.41;98452.16;1569201;89;20292;-86
2021/09/14 08:03:05;;;;;;;;;;;;;;;18.14;79.41;98451.09;1591287;89;20965;-87
2021/09/14 08:05:35;;;;;;;;;;;;;;;18.29;79.42;98450.86;1591524;89;26033;-87
2021/09/14 08:08:01;;;;;;;;;;;;;;;18.42;79.41;98455.75;1590759;89;24479;-87
2021/09/14 08:10:27;;;;;;;;;;;;;;;18.59;79.39;98448.77;1586418;88;20800;-87
2021/09/14 08:12:53;;;;;;;;;;;;;;;18.62;79.35;98453.25;1589862;89;20761;-87
2021/09/14 08:15:19;;;;;;;;;;;;;;;18.59;79.23;98453.58;1589254;89;20322;-87
2021/09/14 08:17:51;;;;;;;;;;;;;;;18.56;79.07;98447.25;1585574;89;21083;-87
2021/09/14 08:20:17;;;;;;;;;;;;;;;18.68;79.02;98442.02;1590042;89;24650;-87
2021/09/14 08:22:43;;;;;;;;;;;;;;;18.81;78.99;98448.23;1590976;89;20246;-87
2021/09/14 08:25:09;;;;;;;;;;;;;;;18.94;78.96;98446.44;1585470;89;24740;-87
2021/09/14 08:27:35;;;;;;;;;;;;;;;19.07;78.93;98448.16;1589515;89;21941;-87
2021/09/14 08:30:05;;;;;;;;;;;;;;;19.17;78.93;98444.38;1583705;88;20919;-87
2021/09/14 08:32:31;;;;;;;;;;;;;;;19.15;78.79;98445.52;1587069;89;24548;-87
2021/09/14 08:34:57;;;;;;;;;;;;;;;19.26;78.74;98443.90;1593748;89;20801;-87
2021/09/14 08:37:23;;;;;;;;;;;;;;;19.27;78.62;98444.24;1588112;89;20293;-90
2021/09/14 08:39:49;;;;;;;;;;;;;;;19.20;78.46;98438.74;1593660;89;20246;-89
2021/09/14 08:42:15;;;;;;;;;;;;;;;19.11;78.29;98443.70;1598449;88;21082;-88
2021/09/14 08:44:43;;;;;;;;;;;;;;;19.09;78.16;98442.22;1602062;88;24538;-88
2021/09/14 08:47:09;;;;;;;;;;;;;;;19.13;78.08;98440.40;1604186;88;20272;-88
2021/09/14 08:49:46;;;;;;;;;;;;;;;19.17;77.97;98440.41;1603818;88;20484;-88
2021/09/14 08:52:12;;;;;;;;;;;;;;;19.29;77.90;98441.44;1597794;89;21964;-88
2021/09/14 08:54:38;;;;;;;;;;;;;;;19.33;77.80;98446.25;1583903;89;26165;-89
2021/09/14 08:57:06;;;;;;;;;;;;;;;19.36;77.66;98449.92;1582577;89;24430;-88
2021/09/14 08:59:33;;;;;;;;;;;;;;;19.39;77.53;98445.61;1585562;89;20625;-88
2021/09/14 09:02:08;;;;;;;;;;;;;;;19.46;77.44;98444.50;1586072;89;24589;-88
2021/09/14 09:04:34;;;;;;;;;;;;;;;19.51;77.41;98448.33;1586231;89;22028;-88
2021/09/14 09:07:01;;;;;;;;;;;;;;;19.52;77.30;98449.16;1584084;90;26923;-88
2021/09/14 09:09:32;;;;;;;;;;;;;;;19.55;77.20;98458.11;1589335;89;24638;-88
2021/09/14 09:12:03;;;;;;;;;;;;;;;19.55;77.04;98451.47;1587467;89;20325;-88
2021/09/14 09:14:39;;;;;;;;;;;;;;;19.64;76.95;98456.63;1584888;89;24903;-88
2021/09/14 09:17:12;;;;;;;;;;;;;;;19.73;76.85;98452.67;1586258;89;22115;-89
2021/09/14 09:19:46;;;;;;;;;;;;;;;19.82;76.74;98449.02;1589069;90;26660;-89
2021/09/14 09:22:18;;;;;;;;;;;;;;;19.84;76.60;98451.02;1574394;89;24420;-88
2021/09/14 09:24:46;;;;;;;;;;;;;;;19.86;76.41;98448.52;1588289;89;20224;-88
2021/09/14 09:27:13;;;;;;;;;;;;;;;19.86;76.29;98443.20;1590206;89;24479;-88
2021/09/14 09:29:41;;;;;;;;;;;;;;;19.96;76.18;98449.70;1581852;90;22219;-88
2021/09/14 09:32:07;;;;;;;;;;;;;;;20.01;76.06;98448.70;1588309;90;26041;-88
2021/09/14 09:34:33;;;;;;;;;;;;;;;20.09;75.99;98455.33;1588675;89;24396;-88
2021/09/14 09:37:03;;;;;;;;;;;;;;;20.24;75.99;98456.31;1597267;88;20278;-88
2021/09/14 09:39:30;;;;;;;;;;;;;;;20.22;75.77;98450.36;1594917;89;24314;-88
2021/09/14 09:41:56;;;;;;;;;;;;;;;20.22;75.48;98455.67;1595611;88;22097;-88
2021/09/14 09:44:22;;;;;;;;;;;;;;;20.28;75.35;98455.50;1594386;89;21645;-88
2021/09/14 09:46:56;;;;;;;;;;;;;;;20.29;75.16;98454.52;1597925;88;20247;-89
2021/09/14 09:49:23;;;;;;;;;;;;;;;20.28;74.91;98453.67;1592506;89;20507;-89
2021/09/14 09:51:49;;;;;;;;;;;;;;;20.28;74.63;98448.36;1591302;88;24789;-88
2021/09/14 09:54:16;;;;;;;;;;;;;;;20.30;74.40;98452.98;1597555;89;21863;-88
2021/09/14 09:56:45;;;;;;;;;;;;;;;20.32;74.17;98448.38;1596784;88;27085;-89
2021/09/14 09:59:12;;;;;;;;;;;;;;;20.36;74.03;98443.05;1598064;88;24480;-89
2021/09/14 10:01:40;;;;;;;;;;;;;;;20.47;73.97;98447.19;1598728;88;20325;-90
2021/09/14 10:04:08;;;;;;;;;;;;;;;20.52;73.84;98444.84;1596481;88;24749;-88
2021/09/14 10:06:36;;;;;;;;;;;;;;;20.52;73.50;98440.86;1598866;89;22616;-88
2021/09/14 10:09:02;;;;;;;;;;;;;;;20.56;73.19;98445.36;1601217;86;27038;-88
2021/09/14 10:11:36;;;;;;;;;;;;;;;20.62;73.02;98440.16;1597563;89;24588;-88
2021/09/14 10:14:17;;;;;;;;;;;;;;;20.68;72.87;98443.97;1599012;89;20256;-90
2021/09/14 10:16:46;;;;;;;;;;;;;;;20.70;72.59;98440.66;1597303;88;26173;-90
2021/09/14 10:19:15;;;;;;;;;;;;;;;20.67;72.19;98437.02;1601039;89;22072;-89
2021/09/14 10:24:30;;;;;;;;;;;;;;;20.75;71.64;98434.31;1596423;88;24574;-89
2021/09/14 10:27:07;;;;;;;;;;;;;;;20.82;71.43;98437.96;1598978;88;20342;-87
2021/09/14 10:29:33;;;;;;;;;;;;;;;20.84;71.17;98430.62;1595155;88;24833;-88
2021/09/14 10:32:04;;;;;;;;;;;;;;;20.91;71.04;98432.93;1602233;89;22033;-88
2021/09/14 10:34:31;;;;;;;;;;;;;;;20.95;70.85;98438.23;1599546;89;26718;-88
2021/09/14 10:37:07;;;;;;;;;;;;;;;21.01;70.62;98435.38;1589311;89;24474;-87
2021/09/14 10:39:31;;;;;;;;;;;;;;;21.09;70.43;98434.02;1583846;89;20278;-88
2021/09/14 10:41:57;;;;;;;;;;;;;;;21.22;70.26;98428.48;1567220;90;24780;-87
2021/09/14 10:44:28;;;;;;;;;;;;;;;21.26;69.97;98431.65;1591112;88;21890;-87
2021/09/14 10:47:05;;;;;;;;;;;;;;;21.28;69.73;98430.45;1591210;88;26755;-87
2021/09/14 10:49:48;;;;;;;;;;;;;;;21.37;69.53;98431.75;1572089;89;25197;-88
2021/09/14 10:52:31;;;;;;;;;;;;;;;21.39;69.20;98427.89;1573743;89;20349;-88
2021/09/14 10:54:58;;;;;;;;;;;;;;;21.42;68.86;98433.38;1584506;89;24800;-87
2021/09/14 10:57:34;;;;;;;;;;;;;;;21.33;68.39;98435.25;1579048;90;22835;-87
2021/09/14 11:00:00;;;;;;;;;;;;;;;21.29;68.10;98436.61;1592334;88;25983;-88
2021/09/14 11:02:26;;;;;;;;;;;;;;;21.32;67.84;98435.45;1593635;89;24371;-87
2021/09/14 11:04:52;;;;;;;;;;;;;;;21.37;67.66;98435.25;1590100;89;20307;-87
2021/09/14 11:07:21;;;;;;;;;;;;;;;21.43;67.44;98437.21;1596980;89;24731;-87
2021/09/14 11:09:48;;;;;;;;;;;;;;;21.46;67.16;98436.84;1591943;88;22108;-87
2021/09/14 11:12:18;;;;;;;;;;;;;;;21.53;67.00;98434.31;1578924;89;26033;-87
2021/09/14 11:14:44;;;;;;;;;;;;;;;21.63;66.87;98433.58;1593463;89;24513;-87
2021/09/14 11:17:14;;;;;;;;;;;;;;;21.64;66.65;98438.73;1589516;88;20269;-87
2021/09/14 11:19:40;;;;;;;;;;;;;;;21.69;66.48;98436.87;1586588;89;24746;-87
2021/09/14 11:22:06;;;;;;;;;;;;;;;21.80;66.47;98435.12;1592053;89;21531;-87
2021/09/14 11:24:33;;;;;;;;;;;;;;;21.83;66.24;98437.42;1593349;89;26715;-87
2021/09/14 11:26:59;;;;;;;;;;;;;;;21.82;65.96;98437.09;1592112;88;24577;-87
2021/09/14 11:29:26;;;;;;;;;;;;;;;21.89;65.86;98434.05;1583660;89;20293;-87
2021/09/14 11:31:52;;;;;;;;;;;;;;;21.91;65.65;98434.70;1593517;89;24822;-87
2021/09/14 11:34:20;;;;;;;;;;;;;;;21.90;65.37;98433.05;1587172;89;22050;-87
2021/09/14 11:36:49;;;;;;;;;;;;;;;21.93;65.16;98431.34;1600102;89;26662;-87
2021/09/14 11:39:15;;;;;;;;;;;;;;;21.94;64.95;98433.03;1605105;89;24495;-87
2021/09/14 11:41:43;;;;;;;;;;;;;;;21.86;64.60;98433.08;1579520;89;20218;-87
2021/09/14 11:44:13;;;;;;;;;;;;;;;21.90;64.44;98426.38;1577126;89;24750;-87
2021/09/14 11:46:48;;;;;;;;;;;;;;;21.89;64.25;98423.39;1595029;88;21817;-87
2021/09/14 11:49:14;;;;;;;;;;;;;;;21.75;63.81;98424.17;1604447;88;26075;-87
2021/09/14 11:51:41;;;;;;;;;;;;;;;21.74;63.48;98422.52;1608598;88;20265;-86
2021/09/14 11:54:12;;;;;;;;;;;;;;;21.78;63.28;98413.65;1578861;89;20567;-88
2021/09/14 11:56:38;;;;;;;;;;;;;;;21.84;63.15;98415.61;1606736;88;24851;-87
2021/09/14 11:59:15;;;;;;;;;;;;;;;21.91;62.99;98417.89;1579270;89;22011;-87
2021/09/14 12:01:41;;;;;;;;;;;;;;;21.98;62.84;98410.34;1586720;88;25884;-88
2021/09/14 12:04:08;;;;;;;;;;;;;;;22.04;62.62;98414.95;1584231;89;23879;-87
2021/09/14 12:06:36;;;;;;;;;;;;;;;22.08;62.45;98412.28;1605768;88;20454;-87
2021/09/14 12:09:08;;;;;;;;;;;;;;;22.08;62.13;98408.28;1578751;90;24204;-87
2021/09/14 12:11:35;;;;;;;;;;;;;;;22.25;62.03;98416.13;1590122;89;21992;-87
2021/09/14 12:14:03;;;;;;;;;;;;;;;22.36;61.83;98411.18;1592801;90;26087;-87
2021/09/14 12:16:32;;;;;;;;;;;;;;;22.46;61.64;98414.91;1576279;90;24464;-87
2021/09/14 12:18:59;;;;;;;;;;;;;;;22.49;61.43;98411.36;1582713;88;20328;-87
2021/09/14 12:21:26;;;;;;;;;;;;;;;22.52;61.17;98412.84;1573495;89;24887;-88
2021/09/14 12:23:53;;;;;;;;;;;;;;;22.63;61.05;98408.89;1580307;89;22127;-87
2021/09/14 12:26:20;;;;;;;;;;;;;;;22.69;60.89;98404.98;1599507;88;26042;-87
2021/09/14 12:28:47;;;;;;;;;;;;;;;22.81;60.83;98412.03;1600823;89;24423;-88
2021/09/14 12:31:17;;;;;;;;;;;;;;;22.87;60.71;98407.29;1595751;89;20411;-87
2021/09/14 12:33:43;;;;;;;;;;;;;;;22.85;60.37;98408.83;1596518;89;24770;-87
2021/09/14 12:36:13;;;;;;;;;;;;;;;22.89;60.12;98408.77;1588573;89;21959;-88
2021/09/14 12:38:40;;;;;;;;;;;;;;;22.97;59.98;98403.82;1573822;90;26072;-88
2021/09/14 12:41:06;;;;;;;;;;;;;;;22.94;59.59;98406.38;1572060;90;24521;-86
2021/09/14 12:43:36;;;;;;;;;;;;;;;22.87;59.23;98403.28;1570305;90;20644;-86
2021/09/14 12:46:03;;;;;;;;;;;;;;;22.81;58.87;98403.52;1575218;90;24778;-87
2021/09/14 12:48:32;;;;;;;;;;;;;;;22.94;58.99;98397.53;1575952;90;22144;-87
2021/09/14 12:51:05;;;;;;;;;;;;;;;22.87;58.65;98395.28;1575674;91;26868;-87
2021/09/14 12:53:31;;;;;;;;;;;;;;;22.74;58.23;98396.45;1552279;90;24376;-87
2021/09/14 12:55:57;;;;;;;;;;;;;;;22.63;57.90;98388.88;1573746;90;20258;-86
2021/09/14 12:58:23;;;;;;;;;;;;;;;22.54;57.57;98384.96;1575313;90;24881;-87
2021/09/14 13:00:50;;;;;;;;;;;;;;;22.62;57.55;98385.38;1567784;90;22082;-87
2021/09/14 13:03:19;;;;;;;;;;;;;;;22.67;57.46;98385.66;1571125;90;26244;-87
2021/09/14 13:05:44;;;;;;;;;;;;;;;22.66;57.22;98384.50;1576420;90;24533;-87
2021/09/14 13:08:11;;;;;;;;;;;;;;;22.68;57.08;98380.65;1575965;90;20293;-87
2021/09/14 13:10:37;;;;;;;;;;;;;;;22.75;57.01;98376.23;1575884;91;24680;-87
2021/09/14 13:16:12;;;;;;;;;;;;;;;22.84;56.75;98376.98;1570667;89;26804;-87
2021/09/14 13:18:42;;;;;;;;;;;;;;;22.74;56.33;98374.61;1575055;89;25313;-87
2021/09/14 13:21:09;;;;;;;;;;;;;;;22.74;56.11;98377.28;1573325;91;20387;-86
2021/09/14 13:23:35;;;;;;;;;;;;;;;22.78;55.95;98372.39;1575924;90;24877;-87
2021/09/14 13:26:02;;;;;;;;;;;;;;;22.77;55.71;98374.72;1576131;91;22039;-89
2021/09/14 13:28:28;;;;;;;;;;;;;;;22.86;55.63;98370.93;1570953;89;26012;-88
2021/09/14 13:30:54;;;;;;;;;;;;;;;23.01;55.63;98370.92;1574760;91;24372;-88
2021/09/14 13:33:32;;;;;;;;;;;;;;;23.16;55.61;98369.87;1574376;91;20292;-87
2021/09/14 13:35:58;;;;;;;;;;;;;;;23.32;55.51;98371.48;1561196;88;24749;-88
2021/09/14 13:38:27;;;;;;;;;;;;;;;23.43;55.45;98366.98;1596521;88;20221;-88
2021/09/14 13:40:57;;;;;;;;;;;;;;;23.53;55.48;98362.17;1609867;88;26931;-87
2021/09/14 13:43:33;;;;;;;;;;;;;;;23.64;55.48;98364.84;1603560;88;25092;-87
2021/09/14 13:48:33;;;;;;;;;;;;;;;23.55;55.13;98361.48;1597359;88;24760;-87
2021/09/14 13:51:00;;;;;;;;;;;;;;;23.48;55.06;98361.09;1608407;88;22002;-87
2021/09/14 13:53:28;;;;;;;;;;;;;;;23.49;55.07;98356.07;1601640;88;26809;-88
2021/09/14 13:55:54;;;;;;;;;;;;;;;23.35;54.84;98357.23;1604083;88;24511;-86
2021/09/14 13:58:20;;;;;;;;;;;;;;;23.19;54.47;98357.47;1607703;88;20550;-89
2021/09/14 14:00:46;;;;;;;;;;;;;;;23.08;54.25;98353.95;1602753;88;20266;-87